Orlando, Florida
Traffic Map
Current Weather Conditions
Orlando, Florida
Broken Clouds
Broken Clouds
26°
Feels Like: 27°
Wind Chill: 26° Ceiling: 25000
Heat Index: 27° Visibility: 10mi
Dew Point: 21° Wind: 10mph
Humidity: 74% Direction: 70° (ENE)
Pressure: 30.14in Gusts: 0mph
Raw Report DataKMCO 212253Z 07009KT 10SM FEW020 FEW080 BKN250 26/21 A3014 RMK AO2 SLP204 T02560206 $
Traffic Incident Summary
Active as of:
Severity:
Category:
InformationThere was an issue retrieving the traffic information for this location. Please try a different location or try again shortly.
Advertisements